Isola Bianca — ICLD — position and weather

sailwx.info

Track history (hours):
 
Tides and Currents Weather Stations Pressure Air Temp Water Temp Dewpoint Dewpoint Depression Visibility Wind Speed Wind Dir Waves Ship Positions

Isola Bianca

Last reported at 2016-Nov-04 21:21 UTC. Time now 2016-Dec-06 18:06 UTC.
Position N 27°48' W 015°09'.
Warning: this ship's position is 31 days out of date.

Length 183 m; draft 11.5 m.

Type: Ship. MMSI: 247245200.

Date/timePositionNaut miles runAvg speedWind from/ knotsBaromVisibWave heightAir tempDewpointWater temp
2016-Nov-04 21:21N 27°48' W 015°09'1114.0
2016-Nov-04 20:33N 27°59' W 015°04'2713.7
2016-Nov-04 18:34N 28°24' W 014°54'  
2016-Oct-31 13:33N 48°14' W 006°18'1211.9
2016-Oct-31 12:33N 48°25' W 006°12'3113.5
2016-Oct-31 10:14N 48°53' W 005°50'1014.1
2016-Oct-31 09:33N 48°58' W 005°38'2911.8
2016-Oct-31 07:03N 49°14' W 005°01'4111.8
2016-Oct-31 03:33N 49°37' W 004°07'9212.9
2016-Oct-30 20:25N 50°12' W 001°55'8812.8
2016-Oct-30 13:33N 50°33' E 000°19'1413.8
2016-Oct-30 12:33N 50°37' E 000°39'1412.8
2016-Oct-30 11:26N 50°46' E 000°57'3712.9
2016-Oct-30 08:34N 51°11' E 001°41'1515.1
2016-Oct-30 07:34N 51°24' E 001°53'2914.4
2016-Oct-30 05:33N 51°46' E 002°24'3712.3
2016-Oct-30 02:33N 52°14' E 003°03'2311.5
2016-Oct-30 00:34N 52°30' E 003°29'1312.6
2016-Oct-29 23:33N 52°31' E 003°49'1313.0
2016-Oct-29 22:33N 52°31' E 004°11'1111.0
2016-Oct-29 21:34N 52°29' E 004°28'5 5.1
2016-Oct-29 20:33N 52°28' E 004°37'5 5.1
2016-Oct-29 19:33N 52°26' E 004°44'1 1.2
2016-Oct-29 18:31N 52°25' E 004°45'0 0.0
2016-Oct-29 16:31N 52°25' E 004°45'0 0.0
2016-Oct-29 14:31N 52°25' E 004°45'0 0.0
2016-Oct-29 11:31N 52°25' E 004°45'0 0.0
2016-Oct-29 09:28N 52°25' E 004°45'0 0.0
2016-Oct-29 06:31N 52°25' E 004°45'0 0.0
2016-Oct-29 04:31N 52°25' E 004°45'0 0.0
2016-Oct-29 02:31N 52°25' E 004°45'0 0.0
2016-Oct-28 23:31N 52°25' E 004°45'0 0.0
2016-Oct-28 21:31N 52°25' E 004°45'0 0.0
2016-Oct-28 19:31N 52°25' E 004°45'0 0.0
2016-Oct-28 16:28N 52°25' E 004°45'0 0.0
2016-Oct-28 15:31N 52°25' E 004°45'0 0.0
2016-Oct-28 14:31N 52°25' E 004°45'0 0.0
2016-Oct-28 09:33N 52°25' E 004°45'0 0.0
2016-Oct-28 08:33N 52°25' E 004°45'0 0.0
2016-Oct-28 07:33N 52°25' E 004°45'0 0.0
2016-Oct-28 00:33N 52°25' E 004°45'0 0.0
2016-Oct-27 23:33N 52°25' E 004°45'0 0.0
2016-Oct-27 21:33N 52°25' E 004°45'0 0.0
2016-Oct-27 17:33N 52°25' E 004°45'0 0.0
2016-Oct-27 15:33N 52°25' E 004°45'0 0.0
2016-Oct-27 11:33N 52°25' E 004°45'0 0.0
2016-Oct-27 09:33N 52°25' E 004°45'0 0.0
2016-Oct-27 05:33N 52°25' E 004°45'0 0.0
2016-Oct-27 04:33N 52°25' E 004°45'0 0.0
2016-Oct-27 03:33N 52°25' E 004°45'0 0.0
2016-Oct-27 00:33N 52°25' E 004°45'0 0.0
2016-Oct-26 21:33N 52°25' E 004°45'1 0.1
2016-Oct-26 16:33N 52°25' E 004°45'0 0.0
2016-Oct-26 15:33N 52°25' E 004°45'0 0.0
2016-Oct-26 14:33N 52°25' E 004°45'0 0.0
2016-Oct-26 12:33N 52°25' E 004°45'0 0.0
2016-Oct-26 11:33N 52°25' E 004°45'3 2.7
2016-Oct-26 10:34N 52°25' E 004°49'1 0.7
2016-Oct-26 09:31N 52°25' E 004°50'0 0.0
2016-Oct-26 08:31N 52°25' E 004°50'0 0.0
2016-Oct-26 07:28N 52°25' E 004°50'0 0.0
2016-Oct-26 04:31N 52°25' E 004°50'0 0.0
2016-Oct-26 03:31N 52°25' E 004°50'0 0.0
2016-Oct-25 23:31N 52°25' E 004°50'0 0.0
2016-Oct-25 21:31N 52°25' E 004°50'  
Track history (hours):
 
Tides and Currents Weather Stations Pressure Air Temp Water Temp Dewpoint Dewpoint Depression Visibility Wind Speed Wind Dir Waves Ship Positions

Isola Bianca

Last reported at 2016-Nov-04 21:21 UTC. Time now 2016-Dec-06 18:06 UTC.
Position N 27°48' W 015°09'.
Warning: this ship's position is 31 days out of date.

Length 183 m; draft 11.5 m.

Type: Ship. MMSI: 247245200.

Date/timePositionNaut miles runAvg speedWind from/ knotsBaromVisibWave heightAir tempDewpointWater temp
2016-Nov-04 21:21N 27°48' W 015°09'1114.0
2016-Nov-04 20:33N 27°59' W 015°04'2713.7
2016-Nov-04 18:34N 28°24' W 014°54'  
2016-Oct-31 13:33N 48°14' W 006°18'1211.9
2016-Oct-31 12:33N 48°25' W 006°12'3113.5
2016-Oct-31 10:14N 48°53' W 005°50'1014.1
2016-Oct-31 09:33N 48°58' W 005°38'2911.8
2016-Oct-31 07:03N 49°14' W 005°01'4111.8
2016-Oct-31 03:33N 49°37' W 004°07'9212.9
2016-Oct-30 20:25N 50°12' W 001°55'8812.8
2016-Oct-30 13:33N 50°33' E 000°19'1413.8
2016-Oct-30 12:33N 50°37' E 000°39'1412.8
2016-Oct-30 11:26N 50°46' E 000°57'3712.9
2016-Oct-30 08:34N 51°11' E 001°41'1515.1
2016-Oct-30 07:34N 51°24' E 001°53'2914.4
2016-Oct-30 05:33N 51°46' E 002°24'3712.3
2016-Oct-30 02:33N 52°14' E 003°03'2311.5
2016-Oct-30 00:34N 52°30' E 003°29'1312.6
2016-Oct-29 23:33N 52°31' E 003°49'1313.0
2016-Oct-29 22:33N 52°31' E 004°11'1111.0
2016-Oct-29 21:34N 52°29' E 004°28'5 5.1
2016-Oct-29 20:33N 52°28' E 004°37'5 5.1
2016-Oct-29 19:33N 52°26' E 004°44'1 1.2
2016-Oct-29 18:31N 52°25' E 004°45'0 0.0
2016-Oct-29 16:31N 52°25' E 004°45'0 0.0
2016-Oct-29 14:31N 52°25' E 004°45'0 0.0
2016-Oct-29 11:31N 52°25' E 004°45'0 0.0
2016-Oct-29 09:28N 52°25' E 004°45'0 0.0
2016-Oct-29 06:31N 52°25' E 004°45'0 0.0
2016-Oct-29 04:31N 52°25' E 004°45'0 0.0
2016-Oct-29 02:31N 52°25' E 004°45'0 0.0
2016-Oct-28 23:31N 52°25' E 004°45'0 0.0
2016-Oct-28 21:31N 52°25' E 004°45'0 0.0
2016-Oct-28 19:31N 52°25' E 004°45'0 0.0
2016-Oct-28 16:28N 52°25' E 004°45'0 0.0
2016-Oct-28 15:31N 52°25' E 004°45'0 0.0
2016-Oct-28 14:31N 52°25' E 004°45'0 0.0
2016-Oct-28 09:33N 52°25' E 004°45'0 0.0
2016-Oct-28 08:33N 52°25' E 004°45'0 0.0
2016-Oct-28 07:33N 52°25' E 004°45'0 0.0
2016-Oct-28 00:33N 52°25' E 004°45'0 0.0
2016-Oct-27 23:33N 52°25' E 004°45'0 0.0
2016-Oct-27 21:33N 52°25' E 004°45'0 0.0
2016-Oct-27 17:33N 52°25' E 004°45'0 0.0
2016-Oct-27 15:33N 52°25' E 004°45'0 0.0
2016-Oct-27 11:33N 52°25' E 004°45'0 0.0
2016-Oct-27 09:33N 52°25' E 004°45'0 0.0
2016-Oct-27 05:33N 52°25' E 004°45'0 0.0
2016-Oct-27 04:33N 52°25' E 004°45'0 0.0
2016-Oct-27 03:33N 52°25' E 004°45'0 0.0
2016-Oct-27 00:33N 52°25' E 004°45'0 0.0
2016-Oct-26 21:33N 52°25' E 004°45'1 0.1
2016-Oct-26 16:33N 52°25' E 004°45'0 0.0
2016-Oct-26 15:33N 52°25' E 004°45'0 0.0
2016-Oct-26 14:33N 52°25' E 004°45'0 0.0
2016-Oct-26 12:33N 52°25' E 004°45'0 0.0
2016-Oct-26 11:33N 52°25' E 004°45'3 2.7
2016-Oct-26 10:34N 52°25' E 004°49'1 0.7
2016-Oct-26 09:31N 52°25' E 004°50'0 0.0
2016-Oct-26 08:31N 52°25' E 004°50'0 0.0
2016-Oct-26 07:28N 52°25' E 004°50'0 0.0
2016-Oct-26 04:31N 52°25' E 004°50'0 0.0
2016-Oct-26 03:31N 52°25' E 004°50'0 0.0
2016-Oct-25 23:31N 52°25' E 004°50'0 0.0
2016-Oct-25 21:31N 52°25' E 004°50'  

Dump ship's entire track history